sensor_id;sensor_type;location;lat;lon;timestamp;P1;durP1;ratioP1;P2;durP2;ratioP2
29030;SDS011;16122;50.236;11.734;2022-11-20T00:00:09;12.23;;;9.83;;
29030;SDS011;16122;50.236;11.734;2022-11-20T00:02:36;12.90;;;9.77;;
29030;SDS011;16122;50.236;11.734;2022-11-20T00:05:02;10.97;;;8.93;;
29030;SDS011;16122;50.236;11.734;2022-11-20T00:07:28;15.10;;;9.93;;
29030;SDS011;16122;50.236;11.734;2022-11-20T00:09:54;13.00;;;8.60;;
29030;SDS011;16122;50.236;11.734;2022-11-20T00:12:19;13.47;;;9.50;;
29030;SDS011;16122;50.236;11.734;2022-11-20T00:14:45;12.50;;;8.80;;
29030;SDS011;16122;50.236;11.734;2022-11-20T00:17:11;14.60;;;9.30;;
29030;SDS011;16122;50.236;11.734;2022-11-20T00:19:37;11.97;;;9.70;;
29030;SDS011;16122;50.236;11.734;2022-11-20T00:22:03;10.50;;;8.67;;
29030;SDS011;16122;50.236;11.734;2022-11-20T00:24:28;11.97;;;8.73;;
29030;SDS011;16122;50.236;11.734;2022-11-20T00:26:54;12.63;;;9.37;;
29030;SDS011;16122;50.236;11.734;2022-11-20T00:29:20;14.33;;;10.00;;
29030;SDS011;16122;50.236;11.734;2022-11-20T00:31:46;16.53;;;10.83;;
29030;SDS011;16122;50.236;11.734;2022-11-20T00:34:12;14.20;;;9.40;;
29030;SDS011;16122;50.236;11.734;2022-11-20T00:36:38;13.53;;;9.30;;
29030;SDS011;16122;50.236;11.734;2022-11-20T00:39:03;12.93;;;9.20;;
29030;SDS011;16122;50.236;11.734;2022-11-20T00:41:29;13.67;;;9.73;;
29030;SDS011;16122;50.236;11.734;2022-11-20T00:43:55;11.97;;;9.13;;
29030;SDS011;16122;50.236;11.734;2022-11-20T00:46:22;14.53;;;9.50;;
29030;SDS011;16122;50.236;11.734;2022-11-20T00:48:50;14.20;;;9.20;;
29030;SDS011;16122;50.236;11.734;2022-11-20T00:51:20;12.20;;;8.47;;
29030;SDS011;16122;50.236;11.734;2022-11-20T00:53:48;14.20;;;10.30;;
29030;SDS011;16122;50.236;11.734;2022-11-20T00:56:15;11.77;;;9.43;;
29030;SDS011;16122;50.236;11.734;2022-11-20T00:58:43;12.30;;;9.13;;
29030;SDS011;16122;50.236;11.734;2022-11-20T01:01:13;13.30;;;8.83;;
29030;SDS011;16122;50.236;11.734;2022-11-20T01:03:39;13.60;;;9.60;;
29030;SDS011;16122;50.236;11.734;2022-11-20T01:06:11;13.43;;;10.50;;
29030;SDS011;16122;50.236;11.734;2022-11-20T01:08:39;14.77;;;9.23;;
29030;SDS011;16122;50.236;11.734;2022-11-20T01:11:07;11.60;;;9.37;;
29030;SDS011;16122;50.236;11.734;2022-11-20T01:13:35;13.03;;;10.10;;
29030;SDS011;16122;50.236;11.734;2022-11-20T01:16:05;12.53;;;9.07;;
29030;SDS011;16122;50.236;11.734;2022-11-20T01:18:40;12.23;;;9.30;;
29030;SDS011;16122;50.236;11.734;2022-11-20T01:21:09;13.57;;;9.13;;
29030;SDS011;16122;50.236;11.734;2022-11-20T01:23:43;12.20;;;8.83;;
29030;SDS011;16122;50.236;11.734;2022-11-20T01:26:10;10.17;;;8.43;;
29030;SDS011;16122;50.236;11.734;2022-11-20T01:28:38;12.93;;;8.80;;
29030;SDS011;16122;50.236;11.734;2022-11-20T01:33:38;10.50;;;8.83;;
29030;SDS011;16122;50.236;11.734;2022-11-20T01:36:05;11.73;;;8.77;;
29030;SDS011;16122;50.236;11.734;2022-11-20T01:38:32;11.20;;;9.20;;
29030;SDS011;16122;50.236;11.734;2022-11-20T01:40:58;10.30;;;7.93;;
29030;SDS011;16122;50.236;11.734;2022-11-20T01:43:24;10.47;;;8.40;;
29030;SDS011;16122;50.236;11.734;2022-11-20T01:48:40;10.27;;;7.90;;
29030;SDS011;16122;50.236;11.734;2022-11-20T01:51:17;11.50;;;8.20;;
29030;SDS011;16122;50.236;11.734;2022-11-20T01:53:58;10.73;;;8.30;;
29030;SDS011;16122;50.236;11.734;2022-11-20T01:56:27;8.20;;;7.37;;
29030;SDS011;16122;50.236;11.734;2022-11-20T01:58:56;10.20;;;8.17;;
29030;SDS011;16122;50.236;11.734;2022-11-20T02:01:26;9.87;;;7.67;;
29030;SDS011;16122;50.236;11.734;2022-11-20T02:03:52;10.50;;;7.20;;
29030;SDS011;16122;50.236;11.734;2022-11-20T02:06:23;10.50;;;7.47;;
29030;SDS011;16122;50.236;11.734;2022-11-20T02:08:54;11.13;;;8.30;;
29030;SDS011;16122;50.236;11.734;2022-11-20T02:11:20;9.30;;;7.83;;
29030;SDS011;16122;50.236;11.734;2022-11-20T02:13:47;10.60;;;7.77;;
29030;SDS011;16122;50.236;11.734;2022-11-20T02:16:21;9.10;;;7.57;;
29030;SDS011;16122;50.236;11.734;2022-11-20T02:18:54;9.50;;;7.40;;
29030;SDS011;16122;50.236;11.734;2022-11-20T02:21:23;9.80;;;7.90;;
29030;SDS011;16122;50.236;11.734;2022-11-20T02:24:00;8.70;;;6.90;;
29030;SDS011;16122;50.236;11.734;2022-11-20T02:26:26;9.20;;;7.30;;
29030;SDS011;16122;50.236;11.734;2022-11-20T02:28:55;8.20;;;7.30;;
29030;SDS011;16122;50.236;11.734;2022-11-20T02:31:21;7.87;;;7.00;;
29030;SDS011;16122;50.236;11.734;2022-11-20T02:33:47;7.33;;;6.40;;
29030;SDS011;16122;50.236;11.734;2022-11-20T02:36:18;8.23;;;6.80;;
29030;SDS011;16122;50.236;11.734;2022-11-20T02:38:44;9.47;;;7.30;;
29030;SDS011;16122;50.236;11.734;2022-11-20T02:41:10;10.20;;;7.10;;
29030;SDS011;16122;50.236;11.734;2022-11-20T02:43:36;8.77;;;7.10;;
29030;SDS011;16122;50.236;11.734;2022-11-20T02:46:02;7.50;;;6.50;;
29030;SDS011;16122;50.236;11.734;2022-11-20T02:48:27;8.90;;;7.23;;
29030;SDS011;16122;50.236;11.734;2022-11-20T02:50:53;7.90;;;6.90;;
29030;SDS011;16122;50.236;11.734;2022-11-20T02:53:19;8.33;;;7.00;;
29030;SDS011;16122;50.236;11.734;2022-11-20T02:55:45;10.90;;;7.43;;
29030;SDS011;16122;50.236;11.734;2022-11-20T02:58:11;7.50;;;6.77;;
29030;SDS011;16122;50.236;11.734;2022-11-20T03:00:36;9.63;;;7.00;;
29030;SDS011;16122;50.236;11.734;2022-11-20T03:03:02;10.27;;;7.40;;
29030;SDS011;16122;50.236;11.734;2022-11-20T03:05:28;9.47;;;6.93;;
29030;SDS011;16122;50.236;11.734;2022-11-20T03:07:54;8.80;;;6.50;;
29030;SDS011;16122;50.236;11.734;2022-11-20T03:10:19;10.03;;;7.37;;
29030;SDS011;16122;50.236;11.734;2022-11-20T03:12:45;11.10;;;7.40;;
29030;SDS011;16122;50.236;11.734;2022-11-20T03:15:11;8.47;;;7.03;;
29030;SDS011;16122;50.236;11.734;2022-11-20T03:17:37;8.00;;;6.37;;
29030;SDS011;16122;50.236;11.734;2022-11-20T03:20:03;8.77;;;7.30;;
29030;SDS011;16122;50.236;11.734;2022-11-20T03:22:29;7.27;;;6.13;;
29030;SDS011;16122;50.236;11.734;2022-11-20T03:24:55;8.60;;;7.00;;
29030;SDS011;16122;50.236;11.734;2022-11-20T03:27:21;8.90;;;7.20;;
29030;SDS011;16122;50.236;11.734;2022-11-20T03:29:47;8.97;;;6.97;;
29030;SDS011;16122;50.236;11.734;2022-11-20T03:32:12;8.30;;;6.33;;
29030;SDS011;16122;50.236;11.734;2022-11-20T03:34:38;7.63;;;6.60;;
29030;SDS011;16122;50.236;11.734;2022-11-20T03:37:04;8.40;;;6.80;;
29030;SDS011;16122;50.236;11.734;2022-11-20T03:39:30;8.40;;;6.23;;
29030;SDS011;16122;50.236;11.734;2022-11-20T03:41:56;8.90;;;6.70;;
29030;SDS011;16122;50.236;11.734;2022-11-20T03:44:21;9.23;;;6.70;;
29030;SDS011;16122;50.236;11.734;2022-11-20T03:46:47;9.10;;;6.83;;
29030;SDS011;16122;50.236;11.734;2022-11-20T03:49:13;9.00;;;6.50;;
29030;SDS011;16122;50.236;11.734;2022-11-20T03:51:39;8.70;;;6.53;;
29030;SDS011;16122;50.236;11.734;2022-11-20T03:54:06;7.57;;;5.83;;
29030;SDS011;16122;50.236;11.734;2022-11-20T03:56:34;7.67;;;6.40;;
29030;SDS011;16122;50.236;11.734;2022-11-20T03:59:02;6.77;;;6.00;;
29030;SDS011;16122;50.236;11.734;2022-11-20T04:01:29;7.47;;;6.70;;
29030;SDS011;16122;50.236;11.734;2022-11-20T04:03:57;8.80;;;6.80;;
29030;SDS011;16122;50.236;11.734;2022-11-20T04:06:24;7.37;;;6.40;;
29030;SDS011;16122;50.236;11.734;2022-11-20T04:08:56;8.50;;;6.70;;
29030;SDS011;16122;50.236;11.734;2022-11-20T04:11:24;7.37;;;6.00;;
29030;SDS011;16122;50.236;11.734;2022-11-20T04:13:52;6.83;;;6.10;;
29030;SDS011;16122;50.236;11.734;2022-11-20T04:16:23;6.83;;;6.13;;
29030;SDS011;16122;50.236;11.734;2022-11-20T04:18:53;6.27;;;5.67;;
29030;SDS011;16122;50.236;11.734;2022-11-20T04:21:20;6.80;;;5.27;;
29030;SDS011;16122;50.236;11.734;2022-11-20T04:23:46;6.03;;;5.30;;
29030;SDS011;16122;50.236;11.734;2022-11-20T04:26:12;6.47;;;5.77;;
29030;SDS011;16122;50.236;11.734;2022-11-20T04:28:38;8.03;;;5.70;;
29030;SDS011;16122;50.236;11.734;2022-11-20T04:31:14;7.00;;;5.40;;
29030;SDS011;16122;50.236;11.734;2022-11-20T04:33:45;7.80;;;5.40;;
29030;SDS011;16122;50.236;11.734;2022-11-20T04:36:15;7.20;;;5.60;;
29030;SDS011;16122;50.236;11.734;2022-11-20T04:38:46;6.90;;;6.20;;
29030;SDS011;16122;50.236;11.734;2022-11-20T04:41:16;6.90;;;6.20;;
29030;SDS011;16122;50.236;11.734;2022-11-20T04:43:50;7.30;;;5.70;;
29030;SDS011;16122;50.236;11.734;2022-11-20T04:46:18;7.47;;;6.27;;
29030;SDS011;16122;50.236;11.734;2022-11-20T04:48:46;6.10;;;5.13;;
29030;SDS011;16122;50.236;11.734;2022-11-20T04:51:12;6.60;;;5.43;;
29030;SDS011;16122;50.236;11.734;2022-11-20T04:53:39;6.93;;;5.87;;
29030;SDS011;16122;50.236;11.734;2022-11-20T04:56:05;6.07;;;5.40;;
29030;SDS011;16122;50.236;11.734;2022-11-20T04:58:33;5.27;;;4.73;;
29030;SDS011;16122;50.236;11.734;2022-11-20T05:03:42;6.23;;;5.63;;
29030;SDS011;16122;50.236;11.734;2022-11-20T05:06:09;6.83;;;5.67;;
29030;SDS011;16122;50.236;11.734;2022-11-20T05:08:37;6.97;;;5.07;;
29030;SDS011;16122;50.236;11.734;2022-11-20T05:11:04;5.50;;;4.90;;
29030;SDS011;16122;50.236;11.734;2022-11-20T05:13:31;6.73;;;5.93;;
29030;SDS011;16122;50.236;11.734;2022-11-20T05:16:03;6.67;;;5.80;;
29030;SDS011;16122;50.236;11.734;2022-11-20T05:18:31;6.53;;;5.43;;
29030;SDS011;16122;50.236;11.734;2022-11-20T05:20:58;6.50;;;5.10;;
29030;SDS011;16122;50.236;11.734;2022-11-20T05:23:24;5.97;;;5.40;;
29030;SDS011;16122;50.236;11.734;2022-11-20T05:25:56;6.50;;;5.20;;
29030;SDS011;16122;50.236;11.734;2022-11-20T05:28:22;6.47;;;5.77;;
29030;SDS011;16122;50.236;11.734;2022-11-20T05:30:49;6.17;;;4.97;;
29030;SDS011;16122;50.236;11.734;2022-11-20T05:33:15;7.13;;;5.13;;
29030;SDS011;16122;50.236;11.734;2022-11-20T05:35:41;5.97;;;4.80;;
29030;SDS011;16122;50.236;11.734;2022-11-20T05:38:07;7.57;;;5.57;;
29030;SDS011;16122;50.236;11.734;2022-11-20T05:40:33;8.40;;;5.57;;
29030;SDS011;16122;50.236;11.734;2022-11-20T05:42:59;5.03;;;4.53;;
29030;SDS011;16122;50.236;11.734;2022-11-20T05:45:26;7.53;;;5.20;;
29030;SDS011;16122;50.236;11.734;2022-11-20T05:47:52;6.47;;;5.17;;
29030;SDS011;16122;50.236;11.734;2022-11-20T05:50:18;5.57;;;5.00;;
29030;SDS011;16122;50.236;11.734;2022-11-20T05:52:44;7.10;;;5.57;;
29030;SDS011;16122;50.236;11.734;2022-11-20T05:55:10;7.87;;;5.00;;
29030;SDS011;16122;50.236;11.734;2022-11-20T05:57:36;6.80;;;5.60;;
29030;SDS011;16122;50.236;11.734;2022-11-20T06:00:02;6.90;;;6.20;;
29030;SDS011;16122;50.236;11.734;2022-11-20T06:02:29;7.63;;;5.77;;
29030;SDS011;16122;50.236;11.734;2022-11-20T06:04:55;8.33;;;5.93;;
29030;SDS011;16122;50.236;11.734;2022-11-20T06:07:21;8.13;;;6.63;;
29030;SDS011;16122;50.236;11.734;2022-11-20T06:09:47;8.03;;;6.23;;
29030;SDS011;16122;50.236;11.734;2022-11-20T06:12:12;8.37;;;6.47;;
29030;SDS011;16122;50.236;11.734;2022-11-20T06:14:38;7.87;;;6.13;;
29030;SDS011;16122;50.236;11.734;2022-11-20T06:17:04;7.10;;;6.20;;
29030;SDS011;16122;50.236;11.734;2022-11-20T06:19:30;6.73;;;5.13;;
29030;SDS011;16122;50.236;11.734;2022-11-20T06:21:56;7.53;;;6.33;;
29030;SDS011;16122;50.236;11.734;2022-11-20T06:24:21;6.67;;;5.67;;
29030;SDS011;16122;50.236;11.734;2022-11-20T06:26:48;7.50;;;6.17;;
29030;SDS011;16122;50.236;11.734;2022-11-20T06:29:14;8.13;;;6.10;;
29030;SDS011;16122;50.236;11.734;2022-11-20T06:31:39;9.33;;;6.27;;
29030;SDS011;16122;50.236;11.734;2022-11-20T06:34:07;8.60;;;6.80;;
29030;SDS011;16122;50.236;11.734;2022-11-20T06:36:33;10.93;;;6.67;;
29030;SDS011;16122;50.236;11.734;2022-11-20T06:39:00;8.90;;;7.03;;
29030;SDS011;16122;50.236;11.734;2022-11-20T06:41:25;8.90;;;6.17;;
29030;SDS011;16122;50.236;11.734;2022-11-20T06:43:53;8.57;;;6.73;;
29030;SDS011;16122;50.236;11.734;2022-11-20T06:46:19;11.70;;;6.10;;
29030;SDS011;16122;50.236;11.734;2022-11-20T06:48:46;8.30;;;6.40;;
29030;SDS011;16122;50.236;11.734;2022-11-20T06:51:12;9.40;;;6.27;;
29030;SDS011;16122;50.236;11.734;2022-11-20T06:53:38;8.30;;;6.60;;
29030;SDS011;16122;50.236;11.734;2022-11-20T06:56:05;8.70;;;6.47;;
29030;SDS011;16122;50.236;11.734;2022-11-20T06:58:32;7.63;;;6.20;;
29030;SDS011;16122;50.236;11.734;2022-11-20T07:00:59;11.53;;;7.57;;
29030;SDS011;16122;50.236;11.734;2022-11-20T07:03:32;8.87;;;6.57;;
29030;SDS011;16122;50.236;11.734;2022-11-20T07:05:58;8.30;;;6.40;;
29030;SDS011;16122;50.236;11.734;2022-11-20T07:08:25;10.90;;;6.93;;
29030;SDS011;16122;50.236;11.734;2022-11-20T07:10:51;8.37;;;6.50;;
29030;SDS011;16122;50.236;11.734;2022-11-20T07:13:18;8.23;;;6.37;;
29030;SDS011;16122;50.236;11.734;2022-11-20T07:15:43;10.00;;;7.00;;
29030;SDS011;16122;50.236;11.734;2022-11-20T07:18:09;10.27;;;6.73;;
29030;SDS011;16122;50.236;11.734;2022-11-20T07:20:35;9.30;;;6.97;;
29030;SDS011;16122;50.236;11.734;2022-11-20T07:23:02;8.07;;;6.67;;
29030;SDS011;16122;50.236;11.734;2022-11-20T07:25:28;8.70;;;6.37;;
29030;SDS011;16122;50.236;11.734;2022-11-20T07:27:57;7.97;;;6.50;;
29030;SDS011;16122;50.236;11.734;2022-11-20T07:30:23;10.97;;;7.03;;
29030;SDS011;16122;50.236;11.734;2022-11-20T07:32:53;9.67;;;7.47;;
29030;SDS011;16122;50.236;11.734;2022-11-20T07:35:20;8.87;;;7.30;;
29030;SDS011;16122;50.236;11.734;2022-11-20T07:37:47;10.13;;;7.53;;
29030;SDS011;16122;50.236;11.734;2022-11-20T07:40:13;9.10;;;7.07;;
29030;SDS011;16122;50.236;11.734;2022-11-20T07:42:50;13.63;;;8.73;;
29030;SDS011;16122;50.236;11.734;2022-11-20T07:45:20;10.17;;;7.67;;
29030;SDS011;16122;50.236;11.734;2022-11-20T07:47:47;10.53;;;7.40;;
29030;SDS011;16122;50.236;11.734;2022-11-20T07:50:13;8.53;;;6.67;;
29030;SDS011;16122;50.236;11.734;2022-11-20T07:52:39;8.43;;;6.83;;
29030;SDS011;16122;50.236;11.734;2022-11-20T07:55:05;11.37;;;8.30;;
29030;SDS011;16122;50.236;11.734;2022-11-20T07:57:32;11.13;;;8.23;;
29030;SDS011;16122;50.236;11.734;2022-11-20T07:59:58;9.57;;;7.23;;
29030;SDS011;16122;50.236;11.734;2022-11-20T08:02:24;12.80;;;7.93;;
29030;SDS011;16122;50.236;11.734;2022-11-20T08:04:51;11.37;;;8.07;;
29030;SDS011;16122;50.236;11.734;2022-11-20T08:07:17;13.17;;;8.37;;
29030;SDS011;16122;50.236;11.734;2022-11-20T08:09:42;12.80;;;8.67;;
29030;SDS011;16122;50.236;11.734;2022-11-20T08:12:09;10.70;;;8.07;;
29030;SDS011;16122;50.236;11.734;2022-11-20T08:15:01;8.97;;;7.20;;
29030;SDS011;16122;50.236;11.734;2022-11-20T08:17:28;9.97;;;7.17;;
29030;SDS011;16122;50.236;11.734;2022-11-20T08:19:53;9.60;;;7.47;;
29030;SDS011;16122;50.236;11.734;2022-11-20T08:22:19;9.80;;;7.53;;
29030;SDS011;16122;50.236;11.734;2022-11-20T08:24:45;12.27;;;7.37;;
29030;SDS011;16122;50.236;11.734;2022-11-20T08:27:12;9.30;;;7.10;;
29030;SDS011;16122;50.236;11.734;2022-11-20T08:29:37;9.77;;;6.67;;
29030;SDS011;16122;50.236;11.734;2022-11-20T08:32:03;9.53;;;7.00;;
29030;SDS011;16122;50.236;11.734;2022-11-20T08:34:29;9.97;;;7.23;;
29030;SDS011;16122;50.236;11.734;2022-11-20T08:36:55;10.60;;;6.00;;
29030;SDS011;16122;50.236;11.734;2022-11-20T08:39:21;9.60;;;6.37;;
29030;SDS011;16122;50.236;11.734;2022-11-20T08:41:47;8.53;;;6.00;;
29030;SDS011;16122;50.236;11.734;2022-11-20T08:44:12;8.07;;;6.33;;
29030;SDS011;16122;50.236;11.734;2022-11-20T08:46:39;7.80;;;6.93;;
29030;SDS011;16122;50.236;11.734;2022-11-20T08:49:07;7.40;;;5.70;;
29030;SDS011;16122;50.236;11.734;2022-11-20T08:51:35;7.23;;;5.83;;
29030;SDS011;16122;50.236;11.734;2022-11-20T08:54:01;7.87;;;6.77;;
29030;SDS011;16122;50.236;11.734;2022-11-20T08:56:27;6.90;;;6.20;;
29030;SDS011;16122;50.236;11.734;2022-11-20T08:58:53;9.13;;;7.00;;
29030;SDS011;16122;50.236;11.734;2022-11-20T09:01:20;8.80;;;6.53;;
29030;SDS011;16122;50.236;11.734;2022-11-20T09:03:47;7.87;;;6.17;;
29030;SDS011;16122;50.236;11.734;2022-11-20T09:06:13;7.70;;;6.43;;
29030;SDS011;16122;50.236;11.734;2022-11-20T09:08:39;7.47;;;6.33;;
29030;SDS011;16122;50.236;11.734;2022-11-20T09:11:05;8.90;;;6.60;;
29030;SDS011;16122;50.236;11.734;2022-11-20T09:13:32;8.70;;;7.30;;
29030;SDS011;16122;50.236;11.734;2022-11-20T09:16:03;8.20;;;6.87;;
29030;SDS011;16122;50.236;11.734;2022-11-20T09:18:31;9.20;;;7.70;;
29030;SDS011;16122;50.236;11.734;2022-11-20T09:20:58;8.83;;;6.57;;
29030;SDS011;16122;50.236;11.734;2022-11-20T09:23:25;10.60;;;7.47;;
29030;SDS011;16122;50.236;11.734;2022-11-20T09:25:52;10.53;;;7.40;;
29030;SDS011;16122;50.236;11.734;2022-11-20T09:28:20;9.13;;;7.27;;
29030;SDS011;16122;50.236;11.734;2022-11-20T09:30:46;10.60;;;7.60;;
29030;SDS011;16122;50.236;11.734;2022-11-20T09:33:13;7.70;;;6.53;;
29030;SDS011;16122;50.236;11.734;2022-11-20T09:35:38;10.37;;;6.70;;
29030;SDS011;16122;50.236;11.734;2022-11-20T09:38:07;9.23;;;7.40;;
29030;SDS011;16122;50.236;11.734;2022-11-20T09:40:34;9.10;;;7.43;;
29030;SDS011;16122;50.236;11.734;2022-11-20T09:56:58;9.43;;;7.30;;
29030;SDS011;16122;50.236;11.734;2022-11-20T09:59:33;9.00;;;6.63;;
29030;SDS011;16122;50.236;11.734;2022-11-20T10:02:08;12.00;;;6.93;;
29030;SDS011;16122;50.236;11.734;2022-11-20T10:04:43;11.67;;;6.87;;
29030;SDS011;16122;50.236;11.734;2022-11-20T10:07:17;10.10;;;7.40;;
29030;SDS011;16122;50.236;11.734;2022-11-20T10:09:52;8.83;;;7.17;;
29030;SDS011;16122;50.236;11.734;2022-11-20T10:20:23;15.20;;;7.70;;
29030;SDS011;16122;50.236;11.734;2022-11-20T10:25:39;9.30;;;7.20;;
29030;SDS011;16122;50.236;11.734;2022-11-20T10:28:34;9.23;;;7.60;;
29030;SDS011;16122;50.236;11.734;2022-11-20T10:31:10;9.20;;;7.67;;
29030;SDS011;16122;50.236;11.734;2022-11-20T10:33:40;9.20;;;7.20;;
29030;SDS011;16122;50.236;11.734;2022-11-20T10:36:16;10.13;;;7.63;;
29030;SDS011;16122;50.236;11.734;2022-11-20T10:38:50;9.00;;;7.20;;
29030;SDS011;16122;50.236;11.734;2022-11-20T10:41:36;9.67;;;7.53;;
29030;SDS011;16122;50.236;11.734;2022-11-20T10:44:11;8.83;;;6.97;;
29030;SDS011;16122;50.236;11.734;2022-11-20T10:47:00;9.43;;;7.63;;
29030;SDS011;16122;50.236;11.734;2022-11-20T10:49:27;11.50;;;7.73;;
29030;SDS011;16122;50.236;11.734;2022-11-20T11:00:35;8.47;;;6.80;;
29030;SDS011;16122;50.236;11.734;2022-11-20T11:03:01;8.70;;;6.67;;
29030;SDS011;16122;50.236;11.734;2022-11-20T11:05:45;8.60;;;6.37;;
29030;SDS011;16122;50.236;11.734;2022-11-20T11:08:21;8.40;;;6.27;;
29030;SDS011;16122;50.236;11.734;2022-11-20T11:10:57;7.37;;;5.93;;
29030;SDS011;16122;50.236;11.734;2022-11-20T11:13:27;9.57;;;6.70;;
29030;SDS011;16122;50.236;11.734;2022-11-20T11:15:55;9.47;;;6.57;;
29030;SDS011;16122;50.236;11.734;2022-11-20T11:20:50;8.60;;;6.47;;
29030;SDS011;16122;50.236;11.734;2022-11-20T11:26:02;7.80;;;6.23;;
29030;SDS011;16122;50.236;11.734;2022-11-20T11:28:30;6.50;;;5.77;;
29030;SDS011;16122;50.236;11.734;2022-11-20T11:30:56;6.30;;;5.53;;
29030;SDS011;16122;50.236;11.734;2022-11-20T11:33:23;9.40;;;6.33;;
29030;SDS011;16122;50.236;11.734;2022-11-20T11:35:55;8.03;;;5.90;;
29030;SDS011;16122;50.236;11.734;2022-11-20T11:38:30;7.30;;;5.73;;
29030;SDS011;16122;50.236;11.734;2022-11-20T11:41:00;5.80;;;5.20;;
29030;SDS011;16122;50.236;11.734;2022-11-20T11:43:36;7.37;;;5.20;;
29030;SDS011;16122;50.236;11.734;2022-11-20T11:51:26;7.30;;;5.00;;
29030;SDS011;16122;50.236;11.734;2022-11-20T11:53:58;6.47;;;5.10;;
29030;SDS011;16122;50.236;11.734;2022-11-20T11:56:26;6.30;;;4.70;;
29030;SDS011;16122;50.236;11.734;2022-11-20T11:58:53;5.53;;;4.70;;
29030;SDS011;16122;50.236;11.734;2022-11-20T12:01:27;6.43;;;5.07;;
29030;SDS011;16122;50.236;11.734;2022-11-20T12:06:43;6.17;;;4.80;;
29030;SDS011;16122;50.236;11.734;2022-11-20T12:09:13;4.43;;;4.00;;
29030;SDS011;16122;50.236;11.734;2022-11-20T12:17:00;5.20;;;4.60;;
29030;SDS011;16122;50.236;11.734;2022-11-20T12:19:27;6.10;;;3.97;;
29030;SDS011;16122;50.236;11.734;2022-11-20T12:38:20;52.57;;;16.67;;
29030;SDS011;16122;50.236;11.734;2022-11-20T12:53:02;49.63;;;18.47;;
29030;SDS011;16122;50.236;11.734;2022-11-20T12:55:59;51.50;;;18.37;;
29030;SDS011;16122;50.236;11.734;2022-11-20T12:58:50;48.23;;;18.17;;
29030;SDS011;16122;50.236;11.734;2022-11-20T13:01:40;51.80;;;18.90;;
29030;SDS011;16122;50.236;11.734;2022-11-20T13:06:51;39.43;;;16.30;;
29030;SDS011;16122;50.236;11.734;2022-11-20T13:09:17;54.30;;;17.50;;
29030;SDS011;16122;50.236;11.734;2022-11-20T13:14:39;41.70;;;17.63;;
29030;SDS011;16122;50.236;11.734;2022-11-20T13:20:13;47.10;;;17.27;;
29030;SDS011;16122;50.236;11.734;2022-11-20T13:22:51;51.27;;;18.53;;
29030;SDS011;16122;50.236;11.734;2022-11-20T13:27:51;44.07;;;16.87;;
29030;SDS011;16122;50.236;11.734;2022-11-20T13:30:21;43.00;;;16.20;;
29030;SDS011;16122;50.236;11.734;2022-11-20T13:32:50;40.60;;;16.23;;
29030;SDS011;16122;50.236;11.734;2022-11-20T13:35:27;43.30;;;16.47;;
29030;SDS011;16122;50.236;11.734;2022-11-20T13:38:12;34.00;;;16.23;;
29030;SDS011;16122;50.236;11.734;2022-11-20T13:40:53;36.83;;;15.93;;
29030;SDS011;16122;50.236;11.734;2022-11-20T13:43:47;36.13;;;15.40;;
29030;SDS011;16122;50.236;11.734;2022-11-20T13:46:13;32.63;;;14.33;;
29030;SDS011;16122;50.236;11.734;2022-11-20T13:48:41;33.70;;;16.07;;
29030;SDS011;16122;50.236;11.734;2022-11-20T14:02:16;32.37;;;14.43;;
29030;SDS011;16122;50.236;11.734;2022-11-20T14:04:45;30.83;;;13.97;;
29030;SDS011;16122;50.236;11.734;2022-11-20T14:07:13;35.20;;;14.10;;
29030;SDS011;16122;50.236;11.734;2022-11-20T14:09:48;34.40;;;15.30;;
29030;SDS011;16122;50.236;11.734;2022-11-20T14:12:28;34.30;;;14.07;;
29030;SDS011;16122;50.236;11.734;2022-11-20T14:14:55;33.03;;;14.30;;
29030;SDS011;16122;50.236;11.734;2022-11-20T14:17:22;30.50;;;13.77;;
29030;SDS011;16122;50.236;11.734;2022-11-20T14:19:55;30.33;;;12.97;;
29030;SDS011;16122;50.236;11.734;2022-11-20T14:22:26;32.20;;;13.13;;
29030;SDS011;16122;50.236;11.734;2022-11-20T14:27:37;31.10;;;14.07;;
29030;SDS011;16122;50.236;11.734;2022-11-20T14:30:06;26.47;;;12.83;;
29030;SDS011;16122;50.236;11.734;2022-11-20T14:32:39;28.83;;;12.47;;
29030;SDS011;16122;50.236;11.734;2022-11-20T14:35:09;34.13;;;12.60;;
29030;SDS011;16122;50.236;11.734;2022-11-20T14:37:47;30.37;;;12.20;;
29030;SDS011;16122;50.236;11.734;2022-11-20T14:40:30;24.87;;;11.50;;
29030;SDS011;16122;50.236;11.734;2022-11-20T14:43:00;25.97;;;13.17;;
29030;SDS011;16122;50.236;11.734;2022-11-20T14:45:27;23.30;;;12.70;;
29030;SDS011;16122;50.236;11.734;2022-11-20T14:47:55;23.47;;;11.47;;
29030;SDS011;16122;50.236;11.734;2022-11-20T14:50:25;24.77;;;12.63;;
29030;SDS011;16122;50.236;11.734;2022-11-20T14:52:55;27.03;;;12.20;;
29030;SDS011;16122;50.236;11.734;2022-11-20T14:55:40;22.40;;;11.47;;
29030;SDS011;16122;50.236;11.734;2022-11-20T14:58:19;19.53;;;10.80;;
29030;SDS011;16122;50.236;11.734;2022-11-20T15:01:20;18.47;;;11.20;;
29030;SDS011;16122;50.236;11.734;2022-11-20T15:03:40;22.67;;;11.23;;
29030;SDS011;16122;50.236;11.734;2022-11-20T15:06:06;20.43;;;11.70;;
29030;SDS011;16122;50.236;11.734;2022-11-20T15:08:35;20.33;;;10.73;;
29030;SDS011;16122;50.236;11.734;2022-11-20T15:11:01;19.40;;;9.80;;
29030;SDS011;16122;50.236;11.734;2022-11-20T15:13:32;16.47;;;9.70;;
29030;SDS011;16122;50.236;11.734;2022-11-20T15:16:03;22.23;;;9.70;;
29030;SDS011;16122;50.236;11.734;2022-11-20T15:18:41;23.97;;;10.50;;
29030;SDS011;16122;50.236;11.734;2022-11-20T15:21:11;24.90;;;9.67;;
29030;SDS011;16122;50.236;11.734;2022-11-20T15:23:42;18.80;;;9.50;;
29030;SDS011;16122;50.236;11.734;2022-11-20T15:26:08;24.60;;;9.23;;
29030;SDS011;16122;50.236;11.734;2022-11-20T15:28:38;18.00;;;10.10;;
29030;SDS011;16122;50.236;11.734;2022-11-20T15:31:06;19.23;;;8.80;;
29030;SDS011;16122;50.236;11.734;2022-11-20T15:33:32;19.70;;;9.57;;
29030;SDS011;16122;50.236;11.734;2022-11-20T15:35:59;16.70;;;9.43;;
29030;SDS011;16122;50.236;11.734;2022-11-20T15:38:25;17.70;;;9.30;;
29030;SDS011;16122;50.236;11.734;2022-11-20T15:40:51;18.23;;;9.10;;
29030;SDS011;16122;50.236;11.734;2022-11-20T15:43:17;16.33;;;8.40;;
29030;SDS011;16122;50.236;11.734;2022-11-20T15:48:14;19.73;;;9.40;;
29030;SDS011;16122;50.236;11.734;2022-11-20T15:50:52;13.20;;;8.60;;
29030;SDS011;16122;50.236;11.734;2022-11-20T15:53:22;15.77;;;9.50;;
29030;SDS011;16122;50.236;11.734;2022-11-20T15:55:48;17.90;;;8.87;;
29030;SDS011;16122;50.236;11.734;2022-11-20T15:58:14;14.07;;;8.93;;
29030;SDS011;16122;50.236;11.734;2022-11-20T16:00:42;13.13;;;8.40;;
29030;SDS011;16122;50.236;11.734;2022-11-20T16:03:11;15.33;;;8.17;;
29030;SDS011;16122;50.236;11.734;2022-11-20T16:05:38;13.80;;;8.57;;
29030;SDS011;16122;50.236;11.734;2022-11-20T16:08:04;15.07;;;8.80;;
29030;SDS011;16122;50.236;11.734;2022-11-20T16:10:30;17.73;;;8.50;;
29030;SDS011;16122;50.236;11.734;2022-11-20T16:12:56;19.20;;;9.17;;
29030;SDS011;16122;50.236;11.734;2022-11-20T16:15:41;21.70;;;8.57;;
29030;SDS011;16122;50.236;11.734;2022-11-20T16:18:14;15.37;;;8.03;;
29030;SDS011;16122;50.236;11.734;2022-11-20T16:20:48;15.80;;;7.60;;
29030;SDS011;16122;50.236;11.734;2022-11-20T16:23:18;13.70;;;7.33;;
29030;SDS011;16122;50.236;11.734;2022-11-20T16:25:50;15.70;;;8.10;;
29030;SDS011;16122;50.236;11.734;2022-11-20T16:28:19;16.63;;;8.10;;
29030;SDS011;16122;50.236;11.734;2022-11-20T16:30:52;15.23;;;8.70;;